createdAt,value
2022-10-04T00:03:28.768Z,1.3
2022-10-04T00:05:11.629Z,1.3
2022-10-04T00:10:12.328Z,1.1
2022-10-04T00:15:13.118Z,0.9
2022-10-04T00:20:13.907Z,0.9
2022-10-04T00:25:14.749Z,0.9
2022-10-04T00:30:15.505Z,0.9
2022-10-04T00:35:16.297Z,0.9
2022-10-04T00:40:17.039Z,0.8
2022-10-04T00:45:17.868Z,0.7
2022-10-04T00:50:18.671Z,1.0
2022-10-04T00:55:20.338Z,0.8
2022-10-04T01:00:20.209Z,0.9
2022-10-04T01:05:20.960Z,0.7
2022-10-04T01:10:21.927Z,0.8
2022-10-04T01:15:22.448Z,0.8
2022-10-04T01:20:23.248Z,1.2
2022-10-04T01:25:24.048Z,1.1
2022-10-04T01:30:24.766Z,0.7
2022-10-04T01:35:25.474Z,0.9
2022-10-04T01:40:28.820Z,1.1
2022-10-04T01:45:27.047Z,1.1
2022-10-04T01:50:27.965Z,1.5
2022-10-04T01:55:28.700Z,2.0
2022-10-04T02:00:29.420Z,1.9
2022-10-04T02:05:30.200Z,1.5
2022-10-04T02:10:31.025Z,1.3
2022-10-04T02:15:31.758Z,1.8
2022-10-04T02:20:32.528Z,1.7
2022-10-04T02:25:33.368Z,0.9
2022-10-04T02:30:34.090Z,1.5
2022-10-04T02:35:34.898Z,1.2
2022-10-04T02:40:35.607Z,1.5
2022-10-04T02:45:36.418Z,1.9
2022-10-04T02:50:37.107Z,1.6
2022-10-04T02:55:37.928Z,1.8
2022-10-04T03:00:38.833Z,1.7
2022-10-04T03:05:39.883Z,2.6
2022-10-04T03:10:40.020Z,2.8
2022-10-04T03:15:40.936Z,2.4
2022-10-04T03:20:41.868Z,1.0
2022-10-04T03:25:42.425Z,1.6
2022-10-04T03:30:43.007Z,1.7
2022-10-04T03:35:43.752Z,2.1
2022-10-04T03:40:44.432Z,2.2
2022-10-04T03:45:46.984Z,1.6
2022-10-04T03:50:45.838Z,2.0
2022-10-04T03:55:46.778Z,1.6
2022-10-04T04:00:47.726Z,1.9
2022-10-04T04:05:48.084Z,2.1
2022-10-04T04:10:48.798Z,2.1
2022-10-04T04:15:50.634Z,1.7
2022-10-04T04:20:50.261Z,1.5
2022-10-04T04:25:51.057Z,2.4
2022-10-04T04:30:51.867Z,1.8
2022-10-04T04:35:52.473Z,2.1
2022-10-04T04:40:53.250Z,1.6
2022-10-04T04:46:15.086Z,2.3
2022-10-04T04:50:54.720Z,1.6
2022-10-04T04:56:04.360Z,2.1
2022-10-04T05:00:56.323Z,1.8
2022-10-04T05:05:56.967Z,1.8
2022-10-04T05:10:57.688Z,1.7
2022-10-04T05:15:58.612Z,2.2
2022-10-04T05:20:59.165Z,2.1
2022-10-04T05:25:59.955Z,2.0
2022-10-04T05:31:00.939Z,1.9
2022-10-04T05:36:01.428Z,1.8
2022-10-04T05:41:02.187Z,2.4
2022-10-04T05:46:04.554Z,1.9
2022-10-04T05:51:03.597Z,3.0
2022-10-04T05:56:04.337Z,3.7
2022-10-04T06:01:05.184Z,4.0
2022-10-04T06:06:05.809Z,3.4
2022-10-04T06:11:06.476Z,3.9
2022-10-04T06:16:07.279Z,3.7
2022-10-04T06:21:07.918Z,4.3
2022-10-04T06:26:08.606Z,4.1
2022-10-04T06:31:10.628Z,3.1
2022-10-04T06:36:09.917Z,3.1
2022-10-04T06:41:10.549Z,2.7
2022-10-04T06:46:11.539Z,2.9
2022-10-04T06:51:11.977Z,2.3
2022-10-04T06:56:12.669Z,2.7
2022-10-04T07:01:13.384Z,3.0
2022-10-04T07:06:13.929Z,2.5
2022-10-04T07:11:14.663Z,2.3
2022-10-04T07:16:15.483Z,2.2
2022-10-04T07:21:15.890Z,2.3
2022-10-04T07:26:16.831Z,2.7
2022-10-04T07:31:17.477Z,2.2
2022-10-04T07:36:21.736Z,3.2
2022-10-04T07:41:18.614Z,2.9
2022-10-04T07:46:19.400Z,2.4
2022-10-04T07:51:19.957Z,2.4
2022-10-04T07:56:20.698Z,2.7
2022-10-04T08:01:21.386Z,2.7
2022-10-04T08:11:27.803Z,4.3
2022-10-04T08:16:23.406Z,4.0
2022-10-04T08:21:24.008Z,4.4
2022-10-04T08:26:24.851Z,3.6
2022-10-04T08:31:25.364Z,3.4
2022-10-04T08:36:26.029Z,3.3
2022-10-04T08:41:27.041Z,3.6
2022-10-04T08:46:27.695Z,3.4
2022-10-04T08:51:28.186Z,3.3
2022-10-04T08:56:28.737Z,3.1
2022-10-04T09:01:29.434Z,2.6
2022-10-04T09:06:30.449Z,3.6
2022-10-04T09:11:30.808Z,4.6
2022-10-04T09:16:31.748Z,3.2
2022-10-04T09:21:32.084Z,3.9
2022-10-04T09:26:32.717Z,3.3
2022-10-04T09:31:33.750Z,2.2
2022-10-04T09:36:34.092Z,3.2
2022-10-04T09:41:34.788Z,3.8
2022-10-04T09:46:35.426Z,3.6
2022-10-04T09:51:36.034Z,3.9
2022-10-04T09:56:36.808Z,3.4
2022-10-04T10:01:37.745Z,3.9
2022-10-04T10:06:38.020Z,4.0
2022-10-04T10:11:44.090Z,4.1
2022-10-04T10:16:45.100Z,3.8
2022-10-04T10:31:47.994Z,4.4
2022-10-04T10:36:47.541Z,3.4
2022-10-04T10:41:47.839Z,3.3
2022-10-04T10:46:48.901Z,3.3
2022-10-04T11:01:50.542Z,2.5
2022-10-04T11:06:51.045Z,2.6
2022-10-04T11:16:52.301Z,3.8
2022-10-04T11:21:52.800Z,2.8
2022-10-04T11:26:53.489Z,2.7
2022-10-04T11:31:54.272Z,2.9
2022-10-04T11:36:54.839Z,2.4
2022-10-04T11:51:58.714Z,2.6
2022-10-04T11:56:57.246Z,2.2
2022-10-04T12:01:57.907Z,2.5
2022-10-04T12:22:00.561Z,3.0
2022-10-04T12:27:02.770Z,2.6
2022-10-04T12:32:01.959Z,2.6
2022-10-04T12:37:05.574Z,2.5
2022-10-04T12:47:08.569Z,2.6
2022-10-04T12:52:04.380Z,2.5
2022-10-04T12:57:05.033Z,2.8
2022-10-04T13:02:06.073Z,3.3
2022-10-04T13:07:06.272Z,2.4
2022-10-04T13:12:06.992Z,2.3
2022-10-04T13:17:29.746Z,2.8
2022-10-04T13:22:08.225Z,2.8
2022-10-04T13:27:08.847Z,2.4
2022-10-04T13:32:09.663Z,3.2
2022-10-04T13:42:12.676Z,1.9
2022-10-04T13:47:11.582Z,2.5
2022-10-04T13:57:12.796Z,2.4
2022-10-04T14:02:13.516Z,1.8
2022-10-04T14:07:14.241Z,1.5
2022-10-04T14:12:14.997Z,1.8
2022-10-04T14:17:15.503Z,1.8
2022-10-04T14:22:16.097Z,2.2
2022-10-04T14:27:16.931Z,2.8
2022-10-04T14:32:17.631Z,2.4
2022-10-04T14:42:18.728Z,2.3
2022-10-04T14:47:19.715Z,2.1
2022-10-04T14:52:20.348Z,2.1
2022-10-04T15:02:21.164Z,2.6
2022-10-04T15:07:22.024Z,2.6
2022-10-04T15:22:24.195Z,2.3
2022-10-04T15:32:25.081Z,2.5
2022-10-04T15:37:25.931Z,2.2
2022-10-04T15:42:27.687Z,2.4
2022-10-04T15:52:30.561Z,1.4
2022-10-04T15:57:28.527Z,1.5
2022-10-04T16:07:29.508Z,1.1
2022-10-04T16:12:30.344Z,1.4
2022-10-04T16:17:30.805Z,2.0
2022-10-04T16:22:31.670Z,1.7
2022-10-04T16:27:32.198Z,1.9
2022-10-04T16:32:32.750Z,1.6
2022-10-04T16:37:33.454Z,2.2
2022-10-04T16:47:34.662Z,1.4
2022-10-04T16:52:35.394Z,1.9
2022-10-04T17:02:36.745Z,1.8
2022-10-04T17:07:37.202Z,1.6
2022-10-04T17:17:38.665Z,1.6
2022-10-04T17:27:39.753Z,1.4
2022-10-04T17:32:40.510Z,0.8
2022-10-04T17:37:41.163Z,0.9
2022-10-04T17:47:42.602Z,1.3
2022-10-04T17:52:43.267Z,1.7
2022-10-04T17:57:43.807Z,1.2
2022-10-04T18:02:44.447Z,1.1
2022-10-04T18:07:45.248Z,2.0
2022-10-04T18:17:46.373Z,1.3
2022-10-04T18:23:01.059Z,2.3
2022-10-04T18:32:48.318Z,2.0
2022-10-04T18:42:49.753Z,1.7
2022-10-04T18:47:50.189Z,1.4
2022-10-04T18:57:52.897Z,1.9
2022-10-04T19:02:52.206Z,1.9
2022-10-04T19:07:55.728Z,1.9
2022-10-04T19:12:53.448Z,1.8
2022-10-04T19:17:53.996Z,1.9
2022-10-04T19:22:54.687Z,1.4
2022-10-04T19:27:55.336Z,1.7
2022-10-04T19:32:56.089Z,1.5
2022-10-04T19:37:56.611Z,1.4
2022-10-04T19:42:57.239Z,1.5
2022-10-04T19:47:57.948Z,1.6
2022-10-04T19:53:01.492Z,1.5
2022-10-04T19:57:59.097Z,1.9
2022-10-04T20:02:59.744Z,1.2
2022-10-04T20:13:00.990Z,1.5
2022-10-04T20:18:04.426Z,1.4
2022-10-04T20:33:03.376Z,1.4
2022-10-04T20:38:27.766Z,1.5
2022-10-04T20:43:08.245Z,1.5
2022-10-04T21:03:06.986Z,1.2
2022-10-04T21:08:08.897Z,1.5
2022-10-04T21:13:08.448Z,1.1
2022-10-04T21:18:08.983Z,1.0
2022-10-04T21:23:09.346Z,1.5
2022-10-04T21:28:10.230Z,1.8
2022-10-04T21:33:10.643Z,1.2
2022-10-04T21:38:11.351Z,1.0
2022-10-04T21:43:11.998Z,1.2
2022-10-04T21:48:12.538Z,1.5
2022-10-04T21:53:13.109Z,0.8
2022-10-04T22:03:14.748Z,1.2
2022-10-04T22:08:15.139Z,1.1
2022-10-04T22:13:17.668Z,1.2
2022-10-04T22:23:20.378Z,1.1
2022-10-04T22:28:17.658Z,0.8
2022-10-04T22:33:23.278Z,1.0
2022-10-04T22:38:18.765Z,1.1
2022-10-04T22:43:19.469Z,1.1
2022-10-04T23:03:22.096Z,1.0
2022-10-04T23:08:22.595Z,1.0
2022-10-04T23:13:24.809Z,0.9
2022-10-04T23:33:25.776Z,1.8
2022-10-04T23:53:28.345Z,1.0
